Time;durP1;ratioP1;P1;durP2;ratioP2;P2;SDS_P1;SDS_P2;PMS_P1;PMS_P2;Temp;Humidity;BMP_temperature;BMP_pressure;BME280_temperature;BME280_humidity;BME280_pressure;Samples;Min_cycle;Max_cycle;Signal;HPM_P1;HPM_P2
2021/06/29 00:00:28;;;;;;;5.65;5.15;;;;;;;;;;5013703;28;20284;-48
2021/06/29 00:03:00;;;;;;;5.43;4.82;;;;;;;;;;5007369;28;20248;-48
2021/06/29 00:05:26;;;;;;;8.75;4.95;;;;;;;;;;5005743;28;20247;-48
2021/06/29 00:07:52;;;;;;;5.38;4.97;;;;;;;;;;5003701;28;20470;-48
2021/06/29 00:10:18;;;;;;;5.18;4.78;;;;;;;;;;5014574;28;20185;-48
2021/06/29 00:12:44;;;;;;;5.72;4.88;;;;;;;;;;5000997;28;20227;-48
2021/06/29 00:15:10;;;;;;;5.43;4.90;;;;;;;;;;5012512;28;20238;-48
2021/06/29 00:17:36;;;;;;;5.30;4.90;;;;;;;;;;5012398;28;20200;-48
2021/06/29 00:20:03;;;;;;;4.85;4.47;;;;;;;;;;5005713;28;20204;-48
2021/06/29 00:22:29;;;;;;;6.07;5.30;;;;;;;;;;5018417;28;20489;-48
2021/06/29 00:24:55;;;;;;;5.60;5.20;;;;;;;;;;5017715;28;20196;-48
2021/06/29 00:27:21;;;;;;;5.53;5.07;;;;;;;;;;5005309;28;20189;-48
2021/06/29 00:29:47;;;;;;;5.32;4.85;;;;;;;;;;4999704;28;20188;-48
2021/06/29 00:32:13;;;;;;;6.30;5.15;;;;;;;;;;5004937;28;20243;-48
2021/06/29 00:34:39;;;;;;;5.55;5.07;;;;;;;;;;5010467;28;20191;-48
2021/06/29 00:37:05;;;;;;;8.15;5.90;;;;;;;;;;5002127;28;20251;-48
2021/06/29 00:39:31;;;;;;;6.47;5.38;;;;;;;;;;4998394;28;20438;-48
2021/06/29 00:41:57;;;;;;;6.30;5.22;;;;;;;;;;5011041;28;20244;-48
2021/06/29 00:44:23;;;;;;;6.05;5.43;;;;;;;;;;4998747;28;20881;-48
2021/06/29 00:46:50;;;;;;;7.53;5.40;;;;;;;;;;4999457;28;20566;-48
2021/06/29 00:49:16;;;;;;;6.13;5.53;;;;;;;;;;5001005;28;20192;-48
2021/06/29 00:51:42;;;;;;;6.10;5.50;;;;;;;;;;4998246;28;20182;-48
2021/06/29 00:54:09;;;;;;;6.95;5.68;;;;;;;;;;5004177;28;20156;-48
2021/06/29 00:56:36;;;;;;;5.93;5.40;;;;;;;;;;5016467;28;20462;-48
2021/06/29 00:59:02;;;;;;;6.97;5.10;;;;;;;;;;5003017;28;20196;-48
2021/06/29 01:01:28;;;;;;;6.18;5.68;;;;;;;;;;4997841;28;20204;-48
2021/06/29 01:03:54;;;;;;;5.78;5.28;;;;;;;;;;5005313;28;20235;-48
2021/06/29 01:06:20;;;;;;;5.75;5.25;;;;;;;;;;5017619;28;20189;-48
2021/06/29 01:08:46;;;;;;;6.70;5.40;;;;;;;;;;5017598;28;20169;-48
2021/06/29 01:11:15;;;;;;;5.60;5.15;;;;;;;;;;5010139;28;20181;-48
2021/06/29 01:13:43;;;;;;;5.55;4.90;;;;;;;;;;5010494;28;20208;-48
2021/06/29 01:16:09;;;;;;;7.78;5.85;;;;;;;;;;5010715;28;20177;-48
2021/06/29 01:18:37;;;;;;;6.13;5.57;;;;;;;;;;5003237;28;20177;-47
2021/06/29 01:21:04;;;;;;;7.95;5.47;;;;;;;;;;5011319;28;20244;-48
2021/06/29 01:23:30;;;;;;;6.63;6.03;;;;;;;;;;5017322;28;20479;-48
2021/06/29 01:26:27;;;;;;;8.30;6.30;;;;;;;;;;5015869;28;20548;-48
2021/06/29 01:29:00;;;;;;;6.22;5.63;;;;;;;;;;5005471;28;20587;-48
2021/06/29 01:31:26;;;;;;;7.72;5.65;;;;;;;;;;5000322;28;20172;-48
2021/06/29 01:33:52;;;;;;;6.97;5.28;;;;;;;;;;5010534;28;20250;-48
2021/06/29 01:36:20;;;;;;;4.88;4.47;;;;;;;;;;5010788;28;20452;-48
2021/06/29 01:38:47;;;;;;;5.05;4.65;;;;;;;;;;5016899;28;20227;-48
2021/06/29 01:41:14;;;;;;;4.80;4.40;;;;;;;;;;5000684;28;20231;-48
2021/06/29 01:43:51;;;;;;;4.60;4.20;;;;;;;;;;5009130;28;20574;-48
2021/06/29 01:46:18;;;;;;;4.32;4.03;;;;;;;;;;5015456;28;20502;-48
2021/06/29 01:48:54;;;;;;;6.30;3.90;;;;;;;;;;5006876;28;20637;-48
2021/06/29 01:51:21;;;;;;;5.10;3.50;;;;;;;;;;5025853;28;20245;-48
2021/06/29 01:53:48;;;;;;;3.50;3.20;;;;;;;;;;5015165;28;20216;-48
2021/06/29 01:56:15;;;;;;;5.15;3.17;;;;;;;;;;5014334;28;20251;-48
2021/06/29 01:58:42;;;;;;;6.30;3.42;;;;;;;;;;4997227;28;20243;-48
2021/06/29 02:01:08;;;;;;;3.50;3.20;;;;;;;;;;4996731;28;20285;-48
2021/06/29 02:03:35;;;;;;;3.20;3.00;;;;;;;;;;5004193;28;20812;-48
2021/06/29 02:06:01;;;;;;;4.18;3.00;;;;;;;;;;4996566;28;20204;-48
2021/06/29 02:08:27;;;;;;;2.97;2.78;;;;;;;;;;5009811;28;20223;-48
2021/06/29 02:10:53;;;;;;;2.90;2.55;;;;;;;;;;5003744;28;20627;-48
2021/06/29 02:13:19;;;;;;;2.78;2.58;;;;;;;;;;5015475;28;20200;-48
2021/06/29 02:15:45;;;;;;;2.95;2.70;;;;;;;;;;5008897;28;20224;-48
2021/06/29 02:18:11;;;;;;;2.30;2.20;;;;;;;;;;5008988;28;20185;-48
2021/06/29 02:20:37;;;;;;;2.70;2.50;;;;;;;;;;5007757;28;20177;-48
2021/06/29 02:23:04;;;;;;;7.95;2.80;;;;;;;;;;5008075;28;20190;-48
2021/06/29 02:25:30;;;;;;;3.03;2.67;;;;;;;;;;5016329;28;20211;-48
2021/06/29 02:27:56;;;;;;;2.75;2.08;;;;;;;;;;4996970;28;20177;-48
2021/06/29 02:30:22;;;;;;;3.10;2.13;;;;;;;;;;4997035;28;20230;-48
2021/06/29 02:32:48;;;;;;;2.03;1.92;;;;;;;;;;4997829;28;20216;-48
2021/06/29 02:35:15;;;;;;;1.77;1.67;;;;;;;;;;5000117;28;20181;-48
2021/06/29 02:37:40;;;;;;;2.13;2.03;;;;;;;;;;4996071;28;20174;-48
2021/06/29 02:40:07;;;;;;;2.20;2.05;;;;;;;;;;4996470;28;20174;-48
2021/06/29 02:42:33;;;;;;;1.90;1.80;;;;;;;;;;4997865;28;20620;-48
2021/06/29 02:45:05;;;;;;;1.92;1.83;;;;;;;;;;5011814;28;20177;-48
2021/06/29 02:47:31;;;;;;;2.20;1.90;;;;;;;;;;5012766;28;20723;-48
2021/06/29 02:49:57;;;;;;;2.65;1.63;;;;;;;;;;5004673;28;20227;-48
2021/06/29 02:52:23;;;;;;;1.92;1.83;;;;;;;;;;5003453;28;20287;-48
2021/06/29 02:54:49;;;;;;;1.95;1.85;;;;;;;;;;5009551;28;20489;-48
2021/06/29 02:57:15;;;;;;;1.88;1.65;;;;;;;;;;5001127;28;20188;-48
2021/06/29 02:59:41;;;;;;;2.50;1.67;;;;;;;;;;4995859;28;20174;-48
2021/06/29 03:02:07;;;;;;;2.10;1.58;;;;;;;;;;5001024;28;20200;-48
2021/06/29 03:04:33;;;;;;;2.17;1.98;;;;;;;;;;5004983;28;20475;-48
2021/06/29 03:06:59;;;;;;;1.70;1.60;;;;;;;;;;4995643;28;20184;-48
2021/06/29 03:09:25;;;;;;;1.85;1.75;;;;;;;;;;4999870;28;20204;-47
2021/06/29 03:11:51;;;;;;;3.95;2.00;;;;;;;;;;5010834;28;20450;-48
2021/06/29 03:14:17;;;;;;;2.13;1.92;;;;;;;;;;5011535;28;20184;-48
2021/06/29 03:16:43;;;;;;;2.35;2.15;;;;;;;;;;5012930;28;20616;-47
2021/06/29 03:19:09;;;;;;;4.68;1.80;;;;;;;;;;5002366;28;20180;-47
2021/06/29 03:21:35;;;;;;;2.15;1.95;;;;;;;;;;5019286;28;20181;-47
2021/06/29 03:24:01;;;;;;;2.20;2.00;;;;;;;;;;5015203;28;20230;-47
2021/06/29 03:26:27;;;;;;;2.75;1.98;;;;;;;;;;5004892;28;20184;-48
2021/06/29 03:28:53;;;;;;;3.03;1.70;;;;;;;;;;4996738;28;20181;-47
2021/06/29 03:31:19;;;;;;;4.57;2.13;;;;;;;;;;5015175;28;20169;-47
2021/06/29 03:33:45;;;;;;;3.30;2.20;;;;;;;;;;5006205;28;20211;-47
2021/06/29 03:36:11;;;;;;;4.80;1.75;;;;;;;;;;4998198;28;20199;-47
2021/06/29 03:38:37;;;;;;;3.40;2.33;;;;;;;;;;4995282;28;20216;-47
2021/06/29 03:41:03;;;;;;;4.32;1.90;;;;;;;;;;4996032;28;20265;-48
2021/06/29 03:43:34;;;;;;;7.32;2.63;;;;;;;;;;5002398;28;20185;-48
2021/06/29 03:46:00;;;;;;;2.38;2.08;;;;;;;;;;4996634;28;20181;-48
2021/06/29 03:48:26;;;;;;;2.45;2.22;;;;;;;;;;5005799;28;20543;-48
2021/06/29 03:50:52;;;;;;;9.32;2.33;;;;;;;;;;5003449;28;20184;-48
2021/06/29 03:53:18;;;;;;;4.10;2.08;;;;;;;;;;5001049;28;20208;-48
2021/06/29 03:55:44;;;;;;;2.45;1.95;;;;;;;;;;5002256;28;20196;-47
2021/06/29 03:58:10;;;;;;;3.35;1.95;;;;;;;;;;4995126;28;20204;-48
2021/06/29 04:00:36;;;;;;;8.02;2.20;;;;;;;;;;5007847;28;20244;-48
2021/06/29 04:03:02;;;;;;;3.33;2.10;;;;;;;;;;5006570;28;20272;-48
2021/06/29 04:05:28;;;;;;;2.00;1.90;;;;;;;;;;5012618;28;20208;-48
2021/06/29 04:07:54;;;;;;;9.30;2.33;;;;;;;;;;5014057;28;20203;-48
2021/06/29 04:10:21;;;;;;;2.05;1.88;;;;;;;;;;5013208;28;20180;-48
2021/06/29 04:12:46;;;;;;;6.25;2.20;;;;;;;;;;5010824;28;20579;-48
2021/06/29 04:15:13;;;;;;;3.05;2.03;;;;;;;;;;4995777;28;20177;-48
2021/06/29 04:17:39;;;;;;;5.07;2.90;;;;;;;;;;5002752;28;20185;-48
2021/06/29 04:20:06;;;;;;;6.45;3.08;;;;;;;;;;5010068;28;20173;-48
2021/06/29 04:22:32;;;;;;;10.38;4.03;;;;;;;;;;5002443;28;20263;-48
2021/06/29 04:24:58;;;;;;;6.82;3.50;;;;;;;;;;5013312;28;20171;-48
2021/06/29 04:27:25;;;;;;;8.88;3.42;;;;;;;;;;5001338;28;20193;-48
2021/06/29 04:29:52;;;;;;;3.63;2.80;;;;;;;;;;5011629;28;20589;-48
2021/06/29 04:32:18;;;;;;;3.53;2.70;;;;;;;;;;5014091;28;20482;-48
2021/06/29 04:34:44;;;;;;;3.38;2.53;;;;;;;;;;5001736;28;20194;-47
2021/06/29 04:37:10;;;;;;;4.95;2.75;;;;;;;;;;5013916;28;20173;-48
2021/06/29 04:39:36;;;;;;;10.68;2.85;;;;;;;;;;5011247;28;20207;-48
2021/06/29 04:42:02;;;;;;;6.70;2.67;;;;;;;;;;4994788;28;20189;-48
2021/06/29 04:44:29;;;;;;;5.18;2.72;;;;;;;;;;4994838;28;20170;-48
2021/06/29 04:46:56;;;;;;;7.05;2.70;;;;;;;;;;5002688;28;20181;-48
2021/06/29 04:49:26;;;;;;;4.70;2.33;;;;;;;;;;5000322;28;20168;-48
2021/06/29 04:51:52;;;;;;;5.53;2.90;;;;;;;;;;4995508;28;20177;-48
2021/06/29 04:54:18;;;;;;;7.60;2.80;;;;;;;;;;4994417;28;20422;-48
2021/06/29 04:56:44;;;;;;;2.90;2.38;;;;;;;;;;4994266;28;20181;-48
2021/06/29 04:59:10;;;;;;;3.38;2.40;;;;;;;;;;5005925;28;20624;-48
2021/06/29 05:01:36;;;;;;;5.68;2.78;;;;;;;;;;5014067;28;20180;-47
2021/06/29 05:04:02;;;;;;;3.70;2.33;;;;;;;;;;5007415;28;20204;-48
2021/06/29 05:06:28;;;;;;;4.20;2.55;;;;;;;;;;5002021;28;20177;-48
2021/06/29 05:08:54;;;;;;;4.32;2.45;;;;;;;;;;5006790;28;20517;-48
2021/06/29 05:11:20;;;;;;;4.60;2.60;;;;;;;;;;5017332;28;20176;-48
2021/06/29 05:13:46;;;;;;;2.28;2.08;;;;;;;;;;5011473;28;20603;-47
2021/06/29 05:16:12;;;;;;;3.10;2.10;;;;;;;;;;5000242;28;20181;-48
2021/06/29 05:18:38;;;;;;;2.55;2.30;;;;;;;;;;5009066;28;20180;-48
2021/06/29 05:21:05;;;;;;;2.20;2.00;;;;;;;;;;4997803;28;20177;-48
2021/06/29 05:23:31;;;;;;;2.40;2.17;;;;;;;;;;4997575;28;20184;-48
2021/06/29 05:25:57;;;;;;;5.88;2.28;;;;;;;;;;4997339;28;20173;-48
2021/06/29 05:28:23;;;;;;;3.33;1.92;;;;;;;;;;5002085;28;20239;-47
2021/06/29 05:30:49;;;;;;;4.78;2.20;;;;;;;;;;5004834;28;20209;-47
2021/06/29 05:33:16;;;;;;;2.75;2.28;;;;;;;;;;5001102;28;20232;-48
2021/06/29 05:35:42;;;;;;;2.45;2.10;;;;;;;;;;5006033;28;20168;-48
2021/06/29 05:38:08;;;;;;;3.25;2.10;;;;;;;;;;5015627;28;20177;-48
2021/06/29 05:40:35;;;;;;;2.20;2.00;;;;;;;;;;5016721;28;20571;-48
2021/06/29 05:43:01;;;;;;;3.58;2.00;;;;;;;;;;5014628;28;20235;-48
2021/06/29 05:45:27;;;;;;;2.10;1.95;;;;;;;;;;4997353;28;20181;-47
2021/06/29 05:47:54;;;;;;;2.63;1.92;;;;;;;;;;5009593;28;20630;-48
2021/06/29 05:50:21;;;;;;;3.08;2.25;;;;;;;;;;5005164;28;20292;-48
2021/06/29 05:52:47;;;;;;;2.00;1.90;;;;;;;;;;4997281;28;20527;-48
2021/06/29 05:55:14;;;;;;;2.13;1.85;;;;;;;;;;5015456;28;20178;-47
2021/06/29 05:57:40;;;;;;;2.47;2.03;;;;;;;;;;5022311;28;20180;-48
2021/06/29 06:00:12;;;;;;;2.25;2.05;;;;;;;;;;4997196;28;20609;-46
2021/06/29 06:02:41;;;;;;;2.50;2.10;;;;;;;;;;5015501;28;20180;-48
2021/06/29 06:05:07;;;;;;;3.33;2.00;;;;;;;;;;5004125;28;20188;-48
2021/06/29 06:07:33;;;;;;;2.75;2.30;;;;;;;;;;5015288;28;20481;-47
2021/06/29 06:09:59;;;;;;;3.55;1.98;;;;;;;;;;5013694;28;20182;-48
2021/06/29 06:12:26;;;;;;;3.10;2.40;;;;;;;;;;5013660;28;20204;-48
2021/06/29 06:14:52;;;;;;;2.53;2.08;;;;;;;;;;5016485;28;20627;-48
2021/06/29 06:17:18;;;;;;;2.55;2.20;;;;;;;;;;5014032;28;20219;-48
2021/06/29 06:19:45;;;;;;;2.38;1.90;;;;;;;;;;4998782;28;20185;-48
2021/06/29 06:22:11;;;;;;;3.58;1.90;;;;;;;;;;4996156;28;20184;-48
2021/06/29 06:24:37;;;;;;;2.58;1.95;;;;;;;;;;5007405;28;20556;-48
2021/06/29 06:27:03;;;;;;;3.13;1.92;;;;;;;;;;5014169;28;20176;-48
2021/06/29 06:29:29;;;;;;;3.42;1.90;;;;;;;;;;4997338;28;20212;-48
2021/06/29 06:31:55;;;;;;;3.35;2.40;;;;;;;;;;4995865;28;20615;-48
2021/06/29 06:34:21;;;;;;;1.73;1.63;;;;;;;;;;4994946;28;20193;-48
2021/06/29 06:36:47;;;;;;;3.40;2.10;;;;;;;;;;4996989;28;20166;-48
2021/06/29 06:39:14;;;;;;;3.10;2.05;;;;;;;;;;5015705;28;20165;-47
2021/06/29 06:41:40;;;;;;;1.95;1.73;;;;;;;;;;5016147;28;20168;-48
2021/06/29 06:44:06;;;;;;;2.00;1.90;;;;;;;;;;5016069;28;20270;-48
2021/06/29 06:46:32;;;;;;;1.60;1.50;;;;;;;;;;5015391;28;20214;-48
2021/06/29 06:48:58;;;;;;;2.28;1.90;;;;;;;;;;5009063;28;20271;-48
2021/06/29 06:51:24;;;;;;;1.88;1.77;;;;;;;;;;5006043;28;20483;-48
2021/06/29 06:53:50;;;;;;;1.80;1.70;;;;;;;;;;5013449;28;20212;-48
2021/06/29 06:56:17;;;;;;;2.47;1.80;;;;;;;;;;4995819;28;20177;-48
2021/06/29 06:58:44;;;;;;;1.98;1.83;;;;;;;;;;4997616;28;20173;-48
2021/06/29 07:01:11;;;;;;;1.70;1.60;;;;;;;;;;5004980;28;20673;-48
2021/06/29 07:03:40;;;;;;;3.60;1.80;;;;;;;;;;5017352;28;20298;-47
2021/06/29 07:06:06;;;;;;;2.78;1.63;;;;;;;;;;4997846;28;20448;-47
2021/06/29 07:08:32;;;;;;;3.38;1.75;;;;;;;;;;5010506;28;20255;-48
2021/06/29 07:10:59;;;;;;;2.00;1.80;;;;;;;;;;5001944;28;20176;-48
2021/06/29 07:13:25;;;;;;;4.78;1.90;;;;;;;;;;5009739;28;20456;-48
2021/06/29 07:15:51;;;;;;;3.42;2.05;;;;;;;;;;4999541;28;20176;-48
2021/06/29 07:18:17;;;;;;;3.22;1.67;;;;;;;;;;4995951;28;20181;-48
2021/06/29 07:20:45;;;;;;;4.60;2.20;;;;;;;;;;4995650;28;20548;-48
2021/06/29 07:23:11;;;;;;;3.45;1.90;;;;;;;;;;5031075;28;20255;-48
2021/06/29 07:25:37;;;;;;;10.10;2.22;;;;;;;;;;5031711;28;20186;-48
2021/06/29 07:28:03;;;;;;;2.10;2.00;;;;;;;;;;5014162;28;20214;-47
2021/06/29 07:30:29;;;;;;;3.35;2.40;;;;;;;;;;5008488;28;20177;-48
2021/06/29 07:32:58;;;;;;;3.50;2.25;;;;;;;;;;5007360;28;20266;-48
2021/06/29 07:35:24;;;;;;;2.13;1.90;;;;;;;;;;4995351;28;20259;-48
2021/06/29 07:37:51;;;;;;;2.03;1.92;;;;;;;;;;5009101;28;20212;-48
2021/06/29 07:40:17;;;;;;;1.90;1.77;;;;;;;;;;4999707;28;20183;-48
2021/06/29 07:42:43;;;;;;;2.08;1.88;;;;;;;;;;5014594;28;20164;-48
2021/06/29 07:45:10;;;;;;;2.13;1.92;;;;;;;;;;4997899;28;20195;-48
2021/06/29 07:47:36;;;;;;;2.75;1.80;;;;;;;;;;4994237;28;20169;-48
2021/06/29 07:50:03;;;;;;;1.80;1.70;;;;;;;;;;4995204;28;20205;-48
2021/06/29 07:52:29;;;;;;;2.00;1.80;;;;;;;;;;4994636;28;20207;-48
2021/06/29 07:54:55;;;;;;;2.83;1.80;;;;;;;;;;4994763;28;20264;-47
2021/06/29 07:57:21;;;;;;;2.33;2.03;;;;;;;;;;4993930;28;20173;-48
2021/06/29 07:59:47;;;;;;;2.03;1.88;;;;;;;;;;4994603;28;20169;-48
2021/06/29 08:02:13;;;;;;;1.42;1.33;;;;;;;;;;4994953;28;20204;-48
2021/06/29 08:04:40;;;;;;;1.85;1.60;;;;;;;;;;4998191;28;20218;-48
2021/06/29 08:07:06;;;;;;;4.43;2.00;;;;;;;;;;5013658;28;20235;-47
2021/06/29 08:09:32;;;;;;;1.77;1.67;;;;;;;;;;4995741;28;20596;-48
2021/06/29 08:11:58;;;;;;;3.15;2.08;;;;;;;;;;5007888;28;20215;-48
2021/06/29 08:14:24;;;;;;;2.20;1.60;;;;;;;;;;5014535;28;20196;-48
2021/06/29 08:16:50;;;;;;;2.00;1.90;;;;;;;;;;5014169;28;20200;-48
2021/06/29 08:19:17;;;;;;;2.40;1.70;;;;;;;;;;5014398;28;20215;-48
2021/06/29 08:21:43;;;;;;;1.88;1.70;;;;;;;;;;5013819;28;20184;-48
2021/06/29 08:24:09;;;;;;;1.83;1.73;;;;;;;;;;5014413;28;20184;-48
2021/06/29 08:26:35;;;;;;;1.83;1.73;;;;;;;;;;5013832;28;20169;-48
2021/06/29 08:29:01;;;;;;;1.80;1.70;;;;;;;;;;5014349;28;20619;-47
2021/06/29 08:31:27;;;;;;;2.75;1.88;;;;;;;;;;5014346;28;20272;-48
2021/06/29 08:33:54;;;;;;;2.20;1.88;;;;;;;;;;5014346;28;20291;-48
2021/06/29 08:36:20;;;;;;;2.42;1.90;;;;;;;;;;5013762;28;20252;-48
2021/06/29 08:38:46;;;;;;;3.13;1.90;;;;;;;;;;5013025;28;20169;-48
2021/06/29 08:41:13;;;;;;;3.13;2.10;;;;;;;;;;5017858;28;20211;-47
2021/06/29 08:43:40;;;;;;;2.50;2.10;;;;;;;;;;5018180;28;20208;-48
2021/06/29 08:46:06;;;;;;;2.10;1.90;;;;;;;;;;5006229;28;20201;-48
2021/06/29 08:48:32;;;;;;;2.97;1.88;;;;;;;;;;4998219;28;20173;-48
2021/06/29 08:51:00;;;;;;;2.15;2.03;;;;;;;;;;4998347;28;20180;-48
2021/06/29 08:53:26;;;;;;;3.55;2.10;;;;;;;;;;4998521;28;20201;-48
2021/06/29 08:55:52;;;;;;;2.63;2.25;;;;;;;;;;4997674;28;20177;-48
2021/06/29 08:58:19;;;;;;;2.80;2.60;;;;;;;;;;4998064;28;20174;-47
2021/06/29 09:00:46;;;;;;;2.90;2.40;;;;;;;;;;4998108;28;20173;-48
2021/06/29 09:03:12;;;;;;;3.28;2.70;;;;;;;;;;4997993;28;20188;-47
2021/06/29 09:05:43;;;;;;;3.80;2.15;;;;;;;;;;4998113;28;20188;-48
2021/06/29 09:08:10;;;;;;;3.10;2.80;;;;;;;;;;4997639;28;20248;-48
2021/06/29 09:10:37;;;;;;;3.90;3.30;;;;;;;;;;5002164;28;20177;-48
2021/06/29 09:13:05;;;;;;;5.03;3.58;;;;;;;;;;4997892;28;20251;-48
2021/06/29 09:15:33;;;;;;;3.80;3.50;;;;;;;;;;4997987;28;20169;-48
2021/06/29 09:18:08;;;;;;;4.97;4.47;;;;;;;;;;4997312;28;20176;-48
2021/06/29 09:20:36;;;;;;;4.82;4.43;;;;;;;;;;4997851;28;20176;-47
2021/06/29 09:23:10;;;;;;;5.10;4.57;;;;;;;;;;4997503;28;20215;-48
2021/06/29 09:25:36;;;;;;;4.55;4.15;;;;;;;;;;4998834;28;20576;-48
2021/06/29 09:28:03;;;;;;;6.30;4.60;;;;;;;;;;4996330;28;20177;-48
2021/06/29 09:30:38;;;;;;;5.32;4.40;;;;;;;;;;4997158;28;20185;-48
2021/06/29 09:33:07;;;;;;;4.28;3.95;;;;;;;;;;5001342;28;20478;-48
2021/06/29 09:35:33;;;;;;;4.50;3.83;;;;;;;;;;5015790;28;20200;-48
2021/06/29 09:38:00;;;;;;;3.88;3.50;;;;;;;;;;5015091;28;20164;-48
2021/06/29 09:40:27;;;;;;;3.60;3.30;;;;;;;;;;5015213;28;20244;-48
2021/06/29 09:42:53;;;;;;;4.28;3.60;;;;;;;;;;4997659;28;20170;-48
2021/06/29 09:45:33;;;;;;;3.50;3.20;;;;;;;;;;4997704;28;20181;-48
2021/06/29 09:47:59;;;;;;;4.30;3.85;;;;;;;;;;4996706;28;20587;-48
2021/06/29 09:50:35;;;;;;;5.45;4.88;;;;;;;;;;5008775;28;20184;-48
2021/06/29 09:53:14;;;;;;;4.15;3.58;;;;;;;;;;4997238;28;20228;-48
2021/06/29 09:55:44;;;;;;;4.40;4.00;;;;;;;;;;5002048;28;20173;-48
2021/06/29 09:58:10;;;;;;;3.72;3.42;;;;;;;;;;5015682;28;20215;-48
2021/06/29 10:00:50;;;;;;;4.50;4.10;;;;;;;;;;5015325;28;20179;-49
2021/06/29 10:03:20;;;;;;;4.95;4.45;;;;;;;;;;5004201;28;20241;-48
2021/06/29 10:05:46;;;;;;;5.18;4.78;;;;;;;;;;5008623;28;20188;-48
2021/06/29 10:08:22;;;;;;;5.75;5.10;;;;;;;;;;4997052;28;20177;-48
2021/06/29 10:10:48;;;;;;;5.65;5.13;;;;;;;;;;5002369;28;20184;-48
2021/06/29 10:13:15;;;;;;;5.45;5.00;;;;;;;;;;4997928;28;20449;-47
2021/06/29 10:15:41;;;;;;;5.10;4.68;;;;;;;;;;4997232;28;20177;-48
2021/06/29 10:18:09;;;;;;;5.25;4.75;;;;;;;;;;5008675;28;20180;-48
2021/06/29 10:20:53;;;;;;;4.82;4.43;;;;;;;;;;5004031;28;20181;-47
2021/06/29 10:23:19;;;;;;;4.97;4.57;;;;;;;;;;4996593;28;20184;-48
2021/06/29 10:25:45;;;;;;;5.13;4.70;;;;;;;;;;5014574;28;20176;-48
2021/06/29 10:28:13;;;;;;;5.03;4.63;;;;;;;;;;5013932;28;20201;-48
2021/06/29 10:30:39;;;;;;;4.93;4.63;;;;;;;;;;5016276;28;20168;-48
2021/06/29 10:33:07;;;;;;;4.95;4.55;;;;;;;;;;5011672;28;20193;-48
2021/06/29 10:35:33;;;;;;;5.57;4.65;;;;;;;;;;5007858;28;20200;-48
2021/06/29 10:37:59;;;;;;;4.47;4.18;;;;;;;;;;4995991;28;20220;-48
2021/06/29 10:40:25;;;;;;;5.90;4.47;;;;;;;;;;5002447;28;20204;-48
2021/06/29 10:42:55;;;;;;;4.28;3.88;;;;;;;;;;5016072;28;20173;-48
2021/06/29 10:45:21;;;;;;;4.63;4.20;;;;;;;;;;5014238;28;20180;-48
2021/06/29 10:47:47;;;;;;;4.97;4.47;;;;;;;;;;5015311;28;20256;-48
2021/06/29 10:50:16;;;;;;;4.60;4.22;;;;;;;;;;5007825;28;20184;-48
2021/06/29 10:52:43;;;;;;;5.70;3.72;;;;;;;;;;5003828;28;20282;-48
2021/06/29 10:55:18;;;;;;;5.10;3.50;;;;;;;;;;5004198;28;20521;-48
2021/06/29 10:57:45;;;;;;;4.50;4.10;;;;;;;;;;4995534;28;20487;-48
2021/06/29 11:00:17;;;;;;;3.85;3.60;;;;;;;;;;4997092;28;20184;-48
2021/06/29 11:03:02;;;;;;;4.00;3.70;;;;;;;;;;5011963;28;20271;-48
2021/06/29 11:05:30;;;;;;;5.47;3.40;;;;;;;;;;5003736;28;20185;-48
2021/06/29 11:08:27;;;;;;;3.97;3.67;;;;;;;;;;5013874;28;20263;-48
2021/06/29 11:10:53;;;;;;;3.55;3.35;;;;;;;;;;5000313;28;20644;-48
2021/06/29 11:13:20;;;;;;;3.67;3.47;;;;;;;;;;5006058;28;20482;-48
2021/06/29 11:15:49;;;;;;;3.97;3.67;;;;;;;;;;5014010;28;20219;-48
2021/06/29 11:18:16;;;;;;;4.13;3.88;;;;;;;;;;5001924;28;20188;-48
2021/06/29 11:20:52;;;;;;;3.67;3.30;;;;;;;;;;4999149;28;20181;-48
2021/06/29 11:23:29;;;;;;;4.15;3.85;;;;;;;;;;4995364;28;20173;-48
2021/06/29 11:25:56;;;;;;;3.47;3.25;;;;;;;;;;4993953;28;20199;-48
2021/06/29 11:28:37;;;;;;;4.28;3.47;;;;;;;;;;4993990;28;20184;-48
2021/06/29 11:31:06;;;;;;;3.50;3.30;;;;;;;;;;4993962;28;20183;-46
2021/06/29 11:33:34;;;;;;;3.65;3.35;;;;;;;;;;4994909;28;20478;-48
2021/06/29 11:36:01;;;;;;;4.50;3.45;;;;;;;;;;4993452;28;20165;-48
2021/06/29 11:38:35;;;;;;;3.30;3.10;;;;;;;;;;4993363;28;20188;-48
2021/06/29 11:41:20;;;;;;;3.50;3.20;;;;;;;;;;4994557;28;20563;-47
2021/06/29 11:43:46;;;;;;;5.07;2.92;;;;;;;;;;4995319;28;20192;-48
2021/06/29 11:46:12;;;;;;;2.90;2.70;;;;;;;;;;4994893;28;20200;-48
2021/06/29 11:48:39;;;;;;;3.17;2.97;;;;;;;;;;4996066;28;20267;-48
2021/06/29 11:51:05;;;;;;;3.05;2.85;;;;;;;;;;4995154;28;20188;-48
2021/06/29 11:53:31;;;;;;;3.17;2.97;;;;;;;;;;4995075;28;20208;-47
2021/06/29 11:55:57;;;;;;;3.50;3.20;;;;;;;;;;4994706;28;20173;-48
2021/06/29 11:58:23;;;;;;;3.45;3.22;;;;;;;;;;4995082;28;20195;-48
2021/06/29 12:00:49;;;;;;;3.30;3.00;;;;;;;;;;4995143;28;20177;-48
2021/06/29 12:03:20;;;;;;;4.47;2.97;;;;;;;;;;4994814;28;20181;-48
2021/06/29 12:05:46;;;;;;;2.92;2.72;;;;;;;;;;4995010;28;20224;-48
2021/06/29 12:08:13;;;;;;;2.70;2.50;;;;;;;;;;4997470;28;20208;-47
2021/06/29 12:10:43;;;;;;;3.13;2.92;;;;;;;;;;5031930;28;20172;-48
2021/06/29 12:13:11;;;;;;;3.00;2.80;;;;;;;;;;5014907;28;20286;-47
2021/06/29 12:15:37;;;;;;;2.70;2.50;;;;;;;;;;5018626;28;20445;-48
2021/06/29 12:18:05;;;;;;;2.97;2.72;;;;;;;;;;5017441;28;20522;-48
2021/06/29 12:20:43;;;;;;;3.00;2.80;;;;;;;;;;5016347;28;20203;-48
2021/06/29 12:23:10;;;;;;;9.25;3.35;;;;;;;;;;5017383;28;20263;-47
2021/06/29 12:25:39;;;;;;;6.03;3.40;;;;;;;;;;5017987;28;20169;-48
2021/06/29 12:28:09;;;;;;;5.47;2.95;;;;;;;;;;5010956;28;20173;-48
2021/06/29 12:30:44;;;;;;;3.35;3.13;;;;;;;;;;4998451;28;20180;-48
2021/06/29 12:33:13;;;;;;;4.40;2.85;;;;;;;;;;5014636;28;20192;-47
2021/06/29 12:35:40;;;;;;;4.03;2.85;;;;;;;;;;5016644;28;20477;-48
2021/06/29 12:38:12;;;;;;;3.53;3.20;;;;;;;;;;4998214;28;20174;-48
2021/06/29 12:40:38;;;;;;;3.40;3.08;;;;;;;;;;5003493;28;20188;-48
2021/06/29 12:43:24;;;;;;;3.35;2.75;;;;;;;;;;5037713;28;20498;-47
2021/06/29 12:45:50;;;;;;;2.80;2.50;;;;;;;;;;5018864;28;20180;-47
2021/06/29 12:48:17;;;;;;;3.05;2.75;;;;;;;;;;5005900;28;20188;-48
2021/06/29 12:50:54;;;;;;;4.13;2.67;;;;;;;;;;5018075;28;20173;-47
2021/06/29 12:53:21;;;;;;;2.90;2.65;;;;;;;;;;5018830;28;20471;-47
2021/06/29 12:55:47;;;;;;;4.57;2.70;;;;;;;;;;5037237;28;20562;-47
2021/06/29 12:58:13;;;;;;;3.00;2.42;;;;;;;;;;5036840;28;20176;-48
2021/06/29 13:00:44;;;;;;;2.70;2.42;;;;;;;;;;5006751;28;20553;-47
2021/06/29 13:03:11;;;;;;;4.45;2.60;;;;;;;;;;5002871;28;20297;-47
2021/06/29 13:05:37;;;;;;;3.08;2.55;;;;;;;;;;5016310;28;20172;-48
2021/06/29 13:08:16;;;;;;;3.35;2.60;;;;;;;;;;5012383;28;20227;-48
2021/06/29 13:10:43;;;;;;;2.78;2.42;;;;;;;;;;5013130;28;20201;-48
2021/06/29 13:13:13;;;;;;;4.22;2.70;;;;;;;;;;5006729;28;20215;-48
2021/06/29 13:15:39;;;;;;;3.03;2.28;;;;;;;;;;5016030;28;20169;-48
2021/06/29 13:18:05;;;;;;;3.33;2.60;;;;;;;;;;5004733;28;20563;-48
2021/06/29 13:20:33;;;;;;;4.28;2.55;;;;;;;;;;5010994;28;20203;-48
2021/06/29 13:22:59;;;;;;;3.38;2.42;;;;;;;;;;5001187;28;20184;-48
2021/06/29 13:25:35;;;;;;;3.85;2.67;;;;;;;;;;4998862;28;20180;-48
2021/06/29 13:28:08;;;;;;;5.82;2.63;;;;;;;;;;5007893;28;20585;-48
2021/06/29 13:30:34;;;;;;;3.88;2.30;;;;;;;;;;4997765;28;20180;-47
2021/06/29 13:33:00;;;;;;;4.13;2.30;;;;;;;;;;5010986;28;20200;-47
2021/06/29 13:35:26;;;;;;;2.63;2.10;;;;;;;;;;5013905;28;20211;-47
2021/06/29 13:37:57;;;;;;;3.58;2.70;;;;;;;;;;4998223;28;20257;-48
2021/06/29 13:40:26;;;;;;;3.08;2.58;;;;;;;;;;5008325;28;20228;-48
2021/06/29 13:43:11;;;;;;;5.22;2.70;;;;;;;;;;5010533;28;20180;-49
2021/06/29 13:45:44;;;;;;;4.18;2.63;;;;;;;;;;5015295;28;20222;-48
2021/06/29 13:48:10;;;;;;;8.10;2.67;;;;;;;;;;5008984;28;20180;-48
2021/06/29 13:50:36;;;;;;;4.63;2.70;;;;;;;;;;4995795;28;20184;-47
2021/06/29 13:53:06;;;;;;;7.20;2.70;;;;;;;;;;5004193;28;20197;-47
2021/06/29 13:55:47;;;;;;;4.15;2.35;;;;;;;;;;5013426;28;20180;-47
2021/06/29 13:58:14;;;;;;;6.82;2.65;;;;;;;;;;5014891;28;20199;-48
2021/06/29 14:00:44;;;;;;;4.70;2.20;;;;;;;;;;5016461;28;20264;-47
2021/06/29 14:03:12;;;;;;;4.97;2.55;;;;;;;;;;5003792;28;20185;-48
2021/06/29 14:05:45;;;;;;;2.53;2.33;;;;;;;;;;5016244;28;20274;-48
2021/06/29 14:08:12;;;;;;;2.83;2.50;;;;;;;;;;5005750;28;20181;-48
2021/06/29 14:10:38;;;;;;;3.45;2.58;;;;;;;;;;4999690;28;20189;-47
2021/06/29 14:13:04;;;;;;;2.50;2.30;;;;;;;;;;4997969;28;20205;-48
2021/06/29 14:15:30;;;;;;;2.33;2.20;;;;;;;;;;5012103;28;20526;-47
2021/06/29 14:17:56;;;;;;;3.20;2.17;;;;;;;;;;5004136;28;20261;-48
2021/06/29 14:20:22;;;;;;;2.75;2.35;;;;;;;;;;4997524;28;20550;-48
2021/06/29 14:22:48;;;;;;;2.50;2.30;;;;;;;;;;5011487;28;20183;-48
2021/06/29 14:25:14;;;;;;;2.55;2.38;;;;;;;;;;5035975;28;20172;-48
2021/06/29 14:27:40;;;;;;;3.60;2.70;;;;;;;;;;5016444;28;20555;-48
2021/06/29 14:30:07;;;;;;;3.08;2.85;;;;;;;;;;5006376;28;20252;-47
2021/06/29 14:32:33;;;;;;;2.85;2.65;;;;;;;;;;5008802;28;20205;-48
2021/06/29 14:34:59;;;;;;;2.60;2.40;;;;;;;;;;5015313;28;20200;-48
2021/06/29 14:37:25;;;;;;;2.70;2.50;;;;;;;;;;5015387;28;20169;-48
2021/06/29 14:39:51;;;;;;;2.58;2.38;;;;;;;;;;5015452;28;20179;-47
2021/06/29 14:42:17;;;;;;;4.13;2.53;;;;;;;;;;5015284;28;20180;-48
2021/06/29 14:44:43;;;;;;;5.88;2.72;;;;;;;;;;5015114;28;20191;-48